createdAt,value
2018-06-20T00:02:19.204Z,79.80
2018-06-20T00:04:48.371Z,80.50
2018-06-20T00:07:18.545Z,80.60
2018-06-20T00:09:48.390Z,81.20
2018-06-20T00:12:17.546Z,78.30
2018-06-20T00:14:46.720Z,80.10
2018-06-20T00:17:15.874Z,80.30
2018-06-20T00:19:45.031Z,82.00
2018-06-20T00:22:14.203Z,82.00
2018-06-20T00:24:43.355Z,84.10
2018-06-20T00:27:12.520Z,83.40
2018-06-20T00:29:42.195Z,83.10
2018-06-20T00:32:11.407Z,82.90
2018-06-20T00:34:40.567Z,86.00
2018-06-20T00:39:38.539Z,85.80
2018-06-20T00:42:08.015Z,86.80
2018-06-20T00:44:37.186Z,88.20
2018-06-20T00:47:06.342Z,89.00
2018-06-20T00:52:04.983Z,90.10
2018-06-20T00:54:34.144Z,89.80
2018-06-20T00:57:03.311Z,89.50
2018-06-20T00:59:32.511Z,90.20
2018-06-20T01:02:01.680Z,90.90
2018-06-20T01:04:30.830Z,90.80
2018-06-20T01:07:00.055Z,90.50
2018-06-20T01:09:29.742Z,90.40
2018-06-20T01:14:28.102Z,90.10
2018-06-20T01:16:57.306Z,91.50
2018-06-20T01:19:26.458Z,91.00
2018-06-20T01:21:55.650Z,90.30
2018-06-20T01:24:24.798Z,90.60
2018-06-20T01:26:53.967Z,90.50
2018-06-20T01:29:23.246Z,90.40
2018-06-20T01:31:52.440Z,91.60
2018-06-20T01:34:21.590Z,91.40
2018-06-20T01:36:51.165Z,90.90
2018-06-20T01:39:20.314Z,91.80
2018-06-20T01:41:49.482Z,92.40
2018-06-20T01:44:18.681Z,90.60
2018-06-20T01:46:47.839Z,92.10
2018-06-20T01:51:45.763Z,93.00
2018-06-20T01:54:14.911Z,91.90
2018-06-20T01:56:44.075Z,92.80
2018-06-20T01:59:13.644Z,92.10
2018-06-20T02:01:42.832Z,93.20
2018-06-20T02:04:12.026Z,93.80
2018-06-20T02:06:41.190Z,93.70
2018-06-20T02:09:10.342Z,92.70
2018-06-20T02:11:39.498Z,94.20
2018-06-20T02:14:09.010Z,93.10
2018-06-20T02:16:38.172Z,94.20
2018-06-20T02:19:07.334Z,93.60
2018-06-20T02:21:43.499Z,92.70
2018-06-20T02:24:12.647Z,94.10
2018-06-20T02:26:41.818Z,93.80
2018-06-20T02:29:10.990Z,94.20
2018-06-20T02:31:40.144Z,94.00
2018-06-20T02:34:09.280Z,93.00
2018-06-20T02:36:38.497Z,93.30
2018-06-20T02:39:08.782Z,94.10
2018-06-20T02:41:38.436Z,94.00
2018-06-20T02:44:08.064Z,93.90
2018-06-20T02:46:37.229Z,93.70
2018-06-20T02:49:06.394Z,94.50
2018-06-20T02:54:04.428Z,94.20
2018-06-20T02:56:33.577Z,94.60
2018-06-20T02:59:02.775Z,94.20
2018-06-20T03:01:31.930Z,94.40
2018-06-20T03:04:01.102Z,94.10
2018-06-20T03:06:30.623Z,93.30
2018-06-20T03:09:01.767Z,94.10
2018-06-20T03:11:31.338Z,93.70
2018-06-20T03:14:00.498Z,95.40
2018-06-20T03:16:30.059Z,95.60
2018-06-20T03:18:59.243Z,95.30
2018-06-20T03:21:28.571Z,94.40
2018-06-20T03:23:57.739Z,95.30
2018-06-20T03:26:27.014Z,95.70
2018-06-20T03:28:56.168Z,95.50
2018-06-20T03:31:25.338Z,96.10
2018-06-20T03:33:54.799Z,95.80
2018-06-20T03:36:23.953Z,95.70
2018-06-20T03:38:53.102Z,95.90
2018-06-20T03:41:22.474Z,96.10
2018-06-20T03:43:51.616Z,96.40
2018-06-20T03:48:50.134Z,96.80
2018-06-20T03:51:19.295Z,96.90
2018-06-20T03:53:48.474Z,97.20
2018-06-20T03:56:17.675Z,97.10
2018-06-20T03:58:46.849Z,97.30
2018-06-20T04:01:16.048Z,97.90
2018-06-20T04:03:45.218Z,97.60
2018-06-20T04:06:14.486Z,97.30
2018-06-20T04:08:43.637Z,97.30
2018-06-20T04:11:14.571Z,97.00
2018-06-20T04:13:43.719Z,97.70
2018-06-20T04:16:12.895Z,98.40
2018-06-20T04:18:44.087Z,97.70
2018-06-20T04:21:15.538Z,97.50
2018-06-20T04:23:44.722Z,98.50
2018-06-20T04:26:14.175Z,98.10
2018-06-20T04:28:43.310Z,98.10
2018-06-20T04:31:12.482Z,98.00
2018-06-20T04:33:42.363Z,98.20
2018-06-20T04:36:11.510Z,98.30
2018-06-20T04:38:40.691Z,98.80
2018-06-20T04:43:38.617Z,99.10
2018-06-20T04:46:07.794Z,97.10
2018-06-20T04:48:36.979Z,98.50
2018-06-20T04:51:06.151Z,98.40
2018-06-20T04:53:35.311Z,97.80
2018-06-20T04:56:05.359Z,99.00
2018-06-20T04:58:34.720Z,99.20
2018-06-20T05:01:03.895Z,98.90
2018-06-20T05:03:33.086Z,98.70
2018-06-20T05:06:02.247Z,98.10
2018-06-20T05:08:31.579Z,97.40
2018-06-20T05:11:00.810Z,98.70
2018-06-20T05:13:29.951Z,98.40
2018-06-20T05:15:59.114Z,99.00
2018-06-20T05:18:28.979Z,98.90
2018-06-20T05:20:58.681Z,99.30
2018-06-20T05:23:27.887Z,98.00
2018-06-20T05:25:57.408Z,98.80
2018-06-20T05:28:26.549Z,98.60
2018-06-20T05:33:24.552Z,99.00
2018-06-20T05:35:53.720Z,97.90
2018-06-20T05:38:22.906Z,97.50
2018-06-20T05:40:52.479Z,98.00
2018-06-20T05:43:21.629Z,97.90
2018-06-20T05:45:50.802Z,97.60
2018-06-20T05:48:19.979Z,98.50
2018-06-20T05:50:49.439Z,98.50
2018-06-20T05:53:18.619Z,98.30
2018-06-20T05:55:47.835Z,97.50
2018-06-20T05:58:17.035Z,98.10
2018-06-20T06:00:46.200Z,98.00
2018-06-20T06:03:15.462Z,97.60
2018-06-20T06:06:11.795Z,97.40
2018-06-20T06:08:41.248Z,97.00
2018-06-20T06:11:10.680Z,97.10
2018-06-20T06:13:39.903Z,96.90
2018-06-20T06:16:09.203Z,96.50
2018-06-20T06:18:38.362Z,95.80
2018-06-20T06:23:37.235Z,95.60
2018-06-20T06:26:06.422Z,95.90
2018-06-20T06:28:35.598Z,95.60
2018-06-20T06:31:04.807Z,95.30
2018-06-20T06:33:33.958Z,95.30
2018-06-20T06:36:03.118Z,95.30
2018-06-20T06:38:32.297Z,94.60
2018-06-20T06:41:01.620Z,94.30
2018-06-20T06:43:30.983Z,94.50
2018-06-20T06:46:00.651Z,94.40
2018-06-20T06:48:29.806Z,94.50
2018-06-20T06:50:58.992Z,93.70
2018-06-20T06:53:28.441Z,94.00
2018-06-20T06:55:57.622Z,94.10
2018-06-20T06:58:26.807Z,93.90
2018-06-20T07:00:56.007Z,94.00
2018-06-20T07:03:25.355Z,94.00
2018-06-20T07:05:54.571Z,94.00
2018-06-20T07:08:23.922Z,94.10
2018-06-20T07:10:53.225Z,94.00
2018-06-20T07:13:22.482Z,93.80
2018-06-20T07:15:51.735Z,93.50
2018-06-20T07:18:23.167Z,93.60
2018-06-20T07:20:52.411Z,93.80
2018-06-20T07:23:21.819Z,93.10
2018-06-20T07:25:51.291Z,93.20
2018-06-20T07:28:20.714Z,93.10
2018-06-20T07:30:49.879Z,92.80
2018-06-20T07:33:19.341Z,92.40
2018-06-20T07:35:48.619Z,92.50
2018-06-20T07:38:17.923Z,92.60
2018-06-20T07:40:47.073Z,92.90
2018-06-20T07:43:16.231Z,92.50
2018-06-20T07:45:46.467Z,92.40
2018-06-20T07:48:15.882Z,92.40
2018-06-20T07:50:45.460Z,92.40
2018-06-20T07:53:14.717Z,92.00
2018-06-20T07:55:43.867Z,92.00
2018-06-20T08:00:51.518Z,91.70
2018-06-20T08:03:25.911Z,91.00
2018-06-20T08:06:03.357Z,91.30
2018-06-20T08:08:38.153Z,90.70
2018-06-20T08:11:14.411Z,90.90
2018-06-20T08:15:51.278Z,90.60
2018-06-20T08:18:25.827Z,90.60
2018-06-20T08:20:55.093Z,90.10
2018-06-20T08:23:24.707Z,89.50
2018-06-20T08:25:53.864Z,87.60
2018-06-20T08:28:23.548Z,87.50
2018-06-20T08:30:53.566Z,84.40
2018-06-20T08:33:23.336Z,84.80
2018-06-20T08:35:53.476Z,84.60
2018-06-20T08:38:22.643Z,84.40
2018-06-20T08:40:51.807Z,85.70
2018-06-20T08:43:21.016Z,83.30
2018-06-20T08:45:50.182Z,81.30
2018-06-20T08:48:19.318Z,83.10
2018-06-20T08:50:48.788Z,80.50
2018-06-20T08:53:17.934Z,80.70
2018-06-20T08:55:47.315Z,80.40
2018-06-20T08:58:16.639Z,77.80
2018-06-20T09:00:51.359Z,79.10
2018-06-20T09:03:23.257Z,80.30
2018-06-20T09:05:57.703Z,80.50
2018-06-20T09:08:32.154Z,79.30
2018-06-20T09:11:06.647Z,78.70
2018-06-20T09:13:41.058Z,78.30
2018-06-20T09:16:16.195Z,78.40
2018-06-20T09:18:50.799Z,78.00
2018-06-20T09:21:19.951Z,77.30
2018-06-20T09:23:49.869Z,73.80
2018-06-20T09:26:19.538Z,77.10
2018-06-20T09:28:49.213Z,75.10
2018-06-20T09:31:18.419Z,72.70
2018-06-20T09:33:47.591Z,70.60
2018-06-20T09:36:17.098Z,71.30
2018-06-20T09:38:46.481Z,69.30
2018-06-20T09:41:16.217Z,70.90
2018-06-20T09:43:45.367Z,70.60
2018-06-20T09:46:14.535Z,71.80
2018-06-20T09:48:44.421Z,69.90
2018-06-20T09:51:14.050Z,68.10
2018-06-20T09:53:43.181Z,66.40
2018-06-20T09:56:12.375Z,65.00
2018-06-20T09:58:41.808Z,66.50
2018-06-20T10:01:17.021Z,68.40
2018-06-20T10:03:51.679Z,68.60
2018-06-20T10:06:26.532Z,69.30
2018-06-20T10:09:01.047Z,68.70
2018-06-20T10:11:35.583Z,66.80
2018-06-20T10:14:09.015Z,65.60
2018-06-20T10:16:38.793Z,62.10
2018-06-20T10:19:07.946Z,63.50
2018-06-20T10:21:37.199Z,62.90
2018-06-20T10:24:07.596Z,58.10
2018-06-20T10:26:36.927Z,61.50
2018-06-20T10:31:34.911Z,64.30
2018-06-20T10:34:05.197Z,63.00
2018-06-20T10:36:34.846Z,59.30
2018-06-20T10:39:05.882Z,61.00
2018-06-20T10:41:36.907Z,58.70
2018-06-20T10:44:11.374Z,58.90
2018-06-20T10:46:46.253Z,59.00
2018-06-20T10:49:17.426Z,59.80
2018-06-20T10:51:47.071Z,60.00
2018-06-20T10:56:50.741Z,59.60
2018-06-20T10:59:25.278Z,56.30
2018-06-20T11:01:59.671Z,57.40
2018-06-20T11:04:34.431Z,58.40
2018-06-20T11:07:09.201Z,56.00
2018-06-20T11:09:43.748Z,57.70
2018-06-20T11:12:18.291Z,59.10
2018-06-20T11:14:47.483Z,58.80
2018-06-20T11:17:16.710Z,55.80
2018-06-20T11:22:14.915Z,54.60
2018-06-20T11:24:44.475Z,54.80
2018-06-20T11:27:13.676Z,59.20
2018-06-20T11:29:42.841Z,50.30
2018-06-20T11:32:11.991Z,49.40
2018-06-20T11:34:41.170Z,51.50
2018-06-20T11:37:10.558Z,56.40
2018-06-20T11:39:39.706Z,49.40
2018-06-20T11:44:38.456Z,51.00
2018-06-20T11:47:13.636Z,51.70
2018-06-20T11:49:42.887Z,45.20
2018-06-20T11:52:17.632Z,41.90
2018-06-20T11:54:47.330Z,41.50
2018-06-20T11:57:16.503Z,43.10
2018-06-20T12:07:07.659Z,34.30
2018-06-20T12:09:42.879Z,39.00
2018-06-20T12:12:17.511Z,37.70
2018-06-20T12:14:52.135Z,36.70
2018-06-20T12:17:26.991Z,36.60
2018-06-20T12:20:01.415Z,34.20
2018-06-20T12:22:35.922Z,36.80
2018-06-20T12:25:12.052Z,35.40
2018-06-20T12:27:50.957Z,31.80
2018-06-20T12:30:25.550Z,30.40
2018-06-20T12:33:00.344Z,28.90
2018-06-20T12:35:34.981Z,30.00
2018-06-20T12:40:44.154Z,29.00
2018-06-20T12:43:18.662Z,27.90
2018-06-20T12:45:51.603Z,29.10
2018-06-20T12:48:21.500Z,30.10
2018-06-20T12:50:50.704Z,29.50
2018-06-20T12:53:20.303Z,31.90
2018-06-20T12:55:49.471Z,32.10
2018-06-20T12:58:19.011Z,31.00
2018-06-20T13:00:48.226Z,30.70
2018-06-20T13:03:17.511Z,31.30
2018-06-20T13:05:48.263Z,30.00
2018-06-20T13:08:17.552Z,29.40
2018-06-20T13:10:48.076Z,28.00
2018-06-20T13:13:17.298Z,26.90
2018-06-20T13:15:46.785Z,28.20
2018-06-20T13:18:15.969Z,29.00
2018-06-20T13:20:45.262Z,31.00
2018-06-20T13:23:14.410Z,32.70
2018-06-20T13:25:45.027Z,34.60
2018-06-20T13:28:14.171Z,34.00
2018-06-20T13:30:47.946Z,34.10
2018-06-20T13:33:22.579Z,34.30
2018-06-20T13:35:57.053Z,34.90
2018-06-20T13:38:31.354Z,31.90
2018-06-20T13:41:05.647Z,32.30
2018-06-20T13:43:40.338Z,31.30
2018-06-20T13:46:15.327Z,30.00
2018-06-20T13:48:44.491Z,26.60
2018-06-20T13:51:13.651Z,27.70
2018-06-20T13:53:42.863Z,26.70
2018-06-20T13:56:12.093Z,27.10
2018-06-20T13:58:41.199Z,25.60
2018-06-20T14:01:10.375Z,25.10
2018-06-20T14:03:39.538Z,27.30
2018-06-20T14:06:08.807Z,25.90
2018-06-20T14:08:38.256Z,23.50
2018-06-20T14:11:07.419Z,26.10
2018-06-20T14:13:36.558Z,25.30
2018-06-20T14:16:05.833Z,25.10
2018-06-20T14:18:37.451Z,23.40
2018-06-20T14:21:12.797Z,23.70
2018-06-20T14:23:43.877Z,24.90
2018-06-20T14:26:15.608Z,21.90
2018-06-20T14:28:46.389Z,24.80
2018-06-20T14:31:21.361Z,22.90
2018-06-20T14:33:55.851Z,23.90
2018-06-20T14:36:30.395Z,24.80
2018-06-20T14:39:05.051Z,23.90
2018-06-20T14:41:39.886Z,23.50
2018-06-20T14:44:10.470Z,22.50
2018-06-20T14:46:39.664Z,22.80
2018-06-20T14:49:08.873Z,22.70
2018-06-20T14:51:38.435Z,23.60
2018-06-20T14:54:07.700Z,23.00
2018-06-20T14:56:36.902Z,23.30
2018-06-20T14:59:06.090Z,22.70
2018-06-20T15:01:35.251Z,22.70
2018-06-20T15:04:04.754Z,21.90
2018-06-20T15:06:33.949Z,22.40
2018-06-20T15:09:03.535Z,22.50
2018-06-20T15:11:32.712Z,21.50
2018-06-20T15:14:01.937Z,23.40
2018-06-20T15:16:36.415Z,22.20
2018-06-20T15:19:05.723Z,23.40
2018-06-20T15:21:34.966Z,22.40
2018-06-20T15:24:04.786Z,22.10
2018-06-20T15:26:39.705Z,22.70
2018-06-20T15:29:14.173Z,23.30
2018-06-20T15:31:48.607Z,22.50
2018-06-20T15:34:23.178Z,21.60
2018-06-20T15:36:57.622Z,21.20
2018-06-20T15:39:27.387Z,22.20
2018-06-20T15:41:56.562Z,22.20
2018-06-20T15:44:25.827Z,22.10
2018-06-20T15:46:55.320Z,22.00
2018-06-20T15:49:24.547Z,20.70
2018-06-20T15:51:53.965Z,21.70
2018-06-20T15:54:23.267Z,22.10
2018-06-20T15:56:52.702Z,21.50
2018-06-20T15:59:21.853Z,22.50
2018-06-20T16:01:51.428Z,23.50
2018-06-20T16:04:21.371Z,21.70
2018-06-20T16:06:50.571Z,21.00
2018-06-20T16:09:25.074Z,21.80
2018-06-20T16:11:54.235Z,22.60
2018-06-20T16:14:23.422Z,22.20
2018-06-20T16:16:52.770Z,21.10
2018-06-20T16:19:27.176Z,20.50
2018-06-20T16:22:01.658Z,20.30
2018-06-20T16:24:35.978Z,20.90
2018-06-20T16:27:10.945Z,20.90
2018-06-20T16:29:45.243Z,21.20
2018-06-20T16:32:14.842Z,21.50
2018-06-20T16:34:43.980Z,21.60
2018-06-20T16:37:13.131Z,21.70
2018-06-20T16:39:42.311Z,22.10
2018-06-20T16:42:11.503Z,21.90
2018-06-20T16:44:40.822Z,21.70
2018-06-20T16:47:10.174Z,21.40
2018-06-20T16:49:39.324Z,22.60
2018-06-20T16:52:08.510Z,22.20
2018-06-20T16:54:37.964Z,20.50
2018-06-20T16:57:07.310Z,21.30
2018-06-20T16:59:36.524Z,21.50
2018-06-20T17:02:10.902Z,21.50
2018-06-20T17:04:40.082Z,21.40
2018-06-20T17:07:09.262Z,21.90
2018-06-20T17:09:38.461Z,21.40
2018-06-20T17:12:13.002Z,22.10
2018-06-20T17:14:47.715Z,21.60
2018-06-20T17:17:22.135Z,22.00
2018-06-20T17:19:56.683Z,22.40
2018-06-20T17:22:31.015Z,22.40
2018-06-20T17:25:05.499Z,22.30
2018-06-20T17:27:35.714Z,23.00
2018-06-20T17:30:05.755Z,22.40
2018-06-20T17:32:35.015Z,22.70
2018-06-20T17:35:04.368Z,22.80
2018-06-20T17:37:33.657Z,23.30
2018-06-20T17:40:02.947Z,22.80
2018-06-20T17:42:32.124Z,23.20
2018-06-20T17:45:01.499Z,22.90
2018-06-20T17:47:30.679Z,23.50
2018-06-20T17:49:59.899Z,23.10
2018-06-20T17:52:29.082Z,23.20
2018-06-20T17:54:58.507Z,23.10
2018-06-20T17:57:27.950Z,23.50
2018-06-20T17:59:57.944Z,24.10
2018-06-20T18:02:27.244Z,23.90
2018-06-20T18:05:01.632Z,24.30
2018-06-20T18:07:36.137Z,24.70
2018-06-20T18:10:10.911Z,24.60
2018-06-20T18:12:45.292Z,24.60
2018-06-20T18:15:19.738Z,24.90
2018-06-20T18:17:49.192Z,25.50
2018-06-20T18:20:18.335Z,26.40
2018-06-20T18:22:47.480Z,27.00
2018-06-20T18:25:16.651Z,27.50
2018-06-20T18:27:46.328Z,27.90
2018-06-20T18:30:15.483Z,28.40
2018-06-20T18:32:45.178Z,29.40
2018-06-20T18:35:14.333Z,29.20
2018-06-20T18:37:43.570Z,29.90
2018-06-20T18:40:12.812Z,30.80
2018-06-20T18:42:42.007Z,30.60
2018-06-20T18:45:11.438Z,30.50
2018-06-20T18:47:46.518Z,30.20
2018-06-20T18:50:15.943Z,30.80
2018-06-20T18:52:45.098Z,31.70
2018-06-20T18:55:14.585Z,32.00
2018-06-20T18:57:49.131Z,31.00
2018-06-20T19:00:23.630Z,31.80
2018-06-20T19:02:58.383Z,32.00
2018-06-20T19:05:32.902Z,31.90
2018-06-20T19:08:07.322Z,32.10
2018-06-20T19:10:36.499Z,31.90
2018-06-20T19:13:05.935Z,32.60
2018-06-20T19:15:35.103Z,33.50
2018-06-20T19:18:04.347Z,32.60
2018-06-20T19:20:33.588Z,33.60
2018-06-20T19:23:02.733Z,33.60
2018-06-20T19:25:32.043Z,34.30
2018-06-20T19:28:01.483Z,33.90
2018-06-20T19:30:30.658Z,34.00
2018-06-20T19:32:59.827Z,34.60
2018-06-20T19:35:29.074Z,34.50
2018-06-20T19:37:58.239Z,35.00
2018-06-20T19:40:27.419Z,35.30
2018-06-20T19:42:56.594Z,35.00
2018-06-20T19:47:54.926Z,36.10
2018-06-20T19:50:24.174Z,36.70
2018-06-20T19:52:53.340Z,36.80
2018-06-20T19:55:22.503Z,36.90
2018-06-20T19:57:51.778Z,37.10
2018-06-20T20:00:20.936Z,37.50
2018-06-20T20:02:50.113Z,36.60
2018-06-20T20:05:19.271Z,36.80
2018-06-20T20:07:48.442Z,37.20
2018-06-20T20:10:17.717Z,37.30
2018-06-20T20:12:47.294Z,37.00
2018-06-20T20:15:16.435Z,36.50
2018-06-20T20:17:45.695Z,36.40
2018-06-20T20:20:14.940Z,37.20
2018-06-20T20:25:12.957Z,37.70
2018-06-20T20:27:42.147Z,37.80
2018-06-20T20:30:11.841Z,38.70
2018-06-20T20:32:41.727Z,38.60
2018-06-20T20:35:10.892Z,38.20
2018-06-20T20:37:40.138Z,38.20
2018-06-20T20:40:09.419Z,39.90
2018-06-20T20:42:38.570Z,39.30
2018-06-20T20:45:07.791Z,39.20
2018-06-20T20:47:37.036Z,40.40
2018-06-20T20:50:06.573Z,39.50
2018-06-20T20:52:35.830Z,39.50
2018-06-20T20:55:05.648Z,39.60
2018-06-20T20:57:34.861Z,39.60
2018-06-20T21:00:04.123Z,40.50
2018-06-20T21:02:33.419Z,39.90
2018-06-20T21:05:02.743Z,40.10
2018-06-20T21:07:31.895Z,41.00
2018-06-20T21:12:29.823Z,40.10
2018-06-20T21:14:58.962Z,41.70
2018-06-20T21:17:28.834Z,40.90
2018-06-20T21:19:58.006Z,41.90
2018-06-20T21:22:27.155Z,41.30
2018-06-20T21:24:56.355Z,41.90
2018-06-20T21:27:25.511Z,42.60
2018-06-20T21:29:54.667Z,43.30
2018-06-20T21:32:24.207Z,43.10
2018-06-20T21:34:53.640Z,44.20
2018-06-20T21:37:22.855Z,44.30
2018-06-20T21:39:52.421Z,43.70
2018-06-20T21:42:21.582Z,43.00
2018-06-20T21:44:50.719Z,42.70
2018-06-20T21:47:19.889Z,43.10
2018-06-20T21:49:49.047Z,43.40
2018-06-20T21:52:18.203Z,43.00
2018-06-20T21:54:47.381Z,43.50
2018-06-20T21:57:16.566Z,43.60
2018-06-20T21:59:46.080Z,45.00
2018-06-20T22:02:15.347Z,45.20
2018-06-20T22:04:44.515Z,44.50
2018-06-20T22:07:13.739Z,44.20
2018-06-20T22:09:42.940Z,44.90
2018-06-20T22:12:12.139Z,45.40
2018-06-20T22:14:41.356Z,46.10
2018-06-20T22:17:10.513Z,44.80
2018-06-20T22:19:39.650Z,45.80
2018-06-20T22:22:08.834Z,45.50
2018-06-20T22:24:38.410Z,46.80
2018-06-20T22:27:07.571Z,47.60
2018-06-20T22:29:36.995Z,47.00
2018-06-20T22:32:06.189Z,47.30
2018-06-20T22:34:35.491Z,47.00
2018-06-20T22:37:04.702Z,48.40
2018-06-20T22:39:33.917Z,47.10
2018-06-20T22:42:03.075Z,48.40
2018-06-20T22:44:32.234Z,47.70
2018-06-20T22:47:01.466Z,48.00
2018-06-20T22:51:59.521Z,47.50
2018-06-20T22:54:28.718Z,48.70
2018-06-20T22:56:58.015Z,48.30
2018-06-20T22:59:27.200Z,48.30
2018-06-20T23:01:56.375Z,48.00
2018-06-20T23:04:25.535Z,48.20
2018-06-20T23:06:54.692Z,49.20
2018-06-20T23:09:24.295Z,49.20
2018-06-20T23:11:53.499Z,49.70
2018-06-20T23:14:22.652Z,48.50
2018-06-20T23:19:20.594Z,48.50
2018-06-20T23:21:49.758Z,48.70
2018-06-20T23:24:18.956Z,49.10
2018-06-20T23:26:48.123Z,48.30
2018-06-20T23:29:17.276Z,49.30
2018-06-20T23:31:46.805Z,48.70
2018-06-20T23:34:16.003Z,48.40
2018-06-20T23:36:45.589Z,49.10
2018-06-20T23:39:14.788Z,48.80
2018-06-20T23:41:43.968Z,49.70
2018-06-20T23:44:13.131Z,48.90
2018-06-20T23:46:42.344Z,50.10
2018-06-20T23:49:11.507Z,49.60
2018-06-20T23:51:40.660Z,49.40
2018-06-20T23:54:10.275Z,50.60
2018-06-20T23:56:39.454Z,50.30
2018-06-20T23:59:08.622Z,49.90
